Natoma, Kansas
Current Conditions -  °F | °C
As of 5:53 PM on Saturday 25 Oct 2014 (Local Time) from KRSL Reporting Station
Clear Clear  
Wind Chill: 84°   Ceiling: Unl
Heat Index: 84°   Visibility: 10mi
Dew Point: 51°   Wind: 9mph
Humidity: 32%   Direction: 150°SSE
Pressure: 29.96"   Gusts: NA
Location:  39.19°N, 99.03°W
Report Text: KRSL 252253Z AUTO 15008KT 10SM CLR 29/11 A2996 RMK AO2 SLP133 T02890106
Loading
Personal Weather Stations






























Interactive Weather Map
Tropical Storm Tracking
New forecast layout! Learn more

10-Day Weather Forecast

Advertisements
Track Severe Weather on mobile